sensor_id;sensor_type;location;lat;lon;timestamp;P1;durP1;ratioP1;P2;durP2;ratioP2
9524;SDS011;15940;48.734;9.112;2023-11-19T00:00:29;2.80;;;2.60;;
9524;SDS011;15940;48.734;9.112;2023-11-19T00:02:56;2.33;;;2.17;;
9524;SDS011;15940;48.734;9.112;2023-11-19T00:05:23;3.07;;;2.00;;
9524;SDS011;15940;48.734;9.112;2023-11-19T00:07:51;2.43;;;2.00;;
9524;SDS011;15940;48.734;9.112;2023-11-19T00:10:18;2.10;;;1.90;;
9524;SDS011;15940;48.734;9.112;2023-11-19T00:12:46;2.70;;;2.40;;
9524;SDS011;15940;48.734;9.112;2023-11-19T00:15:15;2.60;;;2.00;;
9524;SDS011;15940;48.734;9.112;2023-11-19T00:17:44;2.30;;;2.10;;
9524;SDS011;15940;48.734;9.112;2023-11-19T00:20:12;2.50;;;1.90;;
9524;SDS011;15940;48.734;9.112;2023-11-19T00:22:40;3.00;;;1.90;;
9524;SDS011;15940;48.734;9.112;2023-11-19T00:25:07;2.10;;;1.90;;
9524;SDS011;15940;48.734;9.112;2023-11-19T00:27:35;2.30;;;1.93;;
9524;SDS011;15940;48.734;9.112;2023-11-19T00:30:03;1.97;;;1.87;;
9524;SDS011;15940;48.734;9.112;2023-11-19T00:32:34;2.40;;;1.97;;
9524;SDS011;15940;48.734;9.112;2023-11-19T00:35:01;2.20;;;1.90;;
9524;SDS011;15940;48.734;9.112;2023-11-19T00:37:29;1.83;;;1.73;;
9524;SDS011;15940;48.734;9.112;2023-11-19T00:39:56;2.37;;;1.63;;
9524;SDS011;15940;48.734;9.112;2023-11-19T00:42:23;2.60;;;1.70;;
9524;SDS011;15940;48.734;9.112;2023-11-19T00:44:50;1.90;;;1.50;;
9524;SDS011;15940;48.734;9.112;2023-11-19T00:47:17;1.60;;;1.50;;
9524;SDS011;15940;48.734;9.112;2023-11-19T00:49:47;2.30;;;1.33;;
9524;SDS011;15940;48.734;9.112;2023-11-19T00:52:15;2.00;;;1.80;;
9524;SDS011;15940;48.734;9.112;2023-11-19T00:54:41;1.50;;;1.40;;
9524;SDS011;15940;48.734;9.112;2023-11-19T00:57:09;1.60;;;1.50;;
9524;SDS011;15940;48.734;9.112;2023-11-19T00:59:36;1.37;;;1.20;;
9524;SDS011;15940;48.734;9.112;2023-11-19T01:02:03;3.03;;;1.53;;
9524;SDS011;15940;48.734;9.112;2023-11-19T01:04:33;1.20;;;1.17;;
9524;SDS011;15940;48.734;9.112;2023-11-19T01:07:02;1.10;;;1.10;;
9524;SDS011;15940;48.734;9.112;2023-11-19T01:09:31;2.00;;;1.30;;
9524;SDS011;15940;48.734;9.112;2023-11-19T01:11:59;0.90;;;0.90;;
9524;SDS011;15940;48.734;9.112;2023-11-19T01:14:26;1.20;;;1.10;;
9524;SDS011;15940;48.734;9.112;2023-11-19T01:16:53;1.53;;;1.10;;
9524;SDS011;15940;48.734;9.112;2023-11-19T01:19:21;0.80;;;0.80;;
9524;SDS011;15940;48.734;9.112;2023-11-19T01:21:48;1.00;;;1.00;;
9524;SDS011;15940;48.734;9.112;2023-11-19T01:24:17;1.03;;;0.93;;
9524;SDS011;15940;48.734;9.112;2023-11-19T01:26:44;0.93;;;0.80;;
9524;SDS011;15940;48.734;9.112;2023-11-19T01:29:11;0.90;;;0.90;;
9524;SDS011;15940;48.734;9.112;2023-11-19T01:31:39;0.90;;;0.90;;
9524;SDS011;15940;48.734;9.112;2023-11-19T01:34:06;0.60;;;0.60;;
9524;SDS011;15940;48.734;9.112;2023-11-19T01:36:34;0.73;;;0.73;;
9524;SDS011;15940;48.734;9.112;2023-11-19T01:39:01;1.90;;;0.90;;
9524;SDS011;15940;48.734;9.112;2023-11-19T01:41:30;0.60;;;0.60;;
9524;SDS011;15940;48.734;9.112;2023-11-19T01:44:01;1.00;;;0.97;;
9524;SDS011;15940;48.734;9.112;2023-11-19T01:46:28;0.93;;;0.63;;
9524;SDS011;15940;48.734;9.112;2023-11-19T01:48:57;0.67;;;0.67;;
9524;SDS011;15940;48.734;9.112;2023-11-19T01:51:25;1.27;;;0.80;;
9524;SDS011;15940;48.734;9.112;2023-11-19T01:53:53;1.17;;;0.90;;
9524;SDS011;15940;48.734;9.112;2023-11-19T01:56:21;1.03;;;0.73;;
9524;SDS011;15940;48.734;9.112;2023-11-19T01:58:50;0.73;;;0.53;;
9524;SDS011;15940;48.734;9.112;2023-11-19T02:01:19;2.00;;;0.70;;
9524;SDS011;15940;48.734;9.112;2023-11-19T02:03:47;0.43;;;0.43;;
9524;SDS011;15940;48.734;9.112;2023-11-19T02:06:14;0.50;;;0.50;;
9524;SDS011;15940;48.734;9.112;2023-11-19T02:08:41;0.47;;;0.47;;
9524;SDS011;15940;48.734;9.112;2023-11-19T02:11:08;0.47;;;0.47;;
9524;SDS011;15940;48.734;9.112;2023-11-19T02:13:37;0.53;;;0.53;;
9524;SDS011;15940;48.734;9.112;2023-11-19T02:16:06;2.43;;;0.63;;
9524;SDS011;15940;48.734;9.112;2023-11-19T02:18:34;0.50;;;0.50;;
9524;SDS011;15940;48.734;9.112;2023-11-19T02:21:01;0.83;;;0.77;;
9524;SDS011;15940;48.734;9.112;2023-11-19T02:23:30;1.33;;;0.53;;
9524;SDS011;15940;48.734;9.112;2023-11-19T02:26:02;0.60;;;0.60;;
9524;SDS011;15940;48.734;9.112;2023-11-19T02:28:40;0.53;;;0.53;;
9524;SDS011;15940;48.734;9.112;2023-11-19T02:31:08;0.50;;;0.50;;
9524;SDS011;15940;48.734;9.112;2023-11-19T02:33:36;0.77;;;0.63;;
9524;SDS011;15940;48.734;9.112;2023-11-19T02:36:03;0.40;;;0.40;;
9524;SDS011;15940;48.734;9.112;2023-11-19T02:38:32;0.60;;;0.47;;
9524;SDS011;15940;48.734;9.112;2023-11-19T02:40:59;0.57;;;0.57;;
9524;SDS011;15940;48.734;9.112;2023-11-19T02:43:30;0.40;;;0.40;;
9524;SDS011;15940;48.734;9.112;2023-11-19T02:45:59;0.37;;;0.37;;
9524;SDS011;15940;48.734;9.112;2023-11-19T02:48:27;8.50;;;0.50;;
9524;SDS011;15940;48.734;9.112;2023-11-19T02:50:55;1.03;;;0.43;;
9524;SDS011;15940;48.734;9.112;2023-11-19T02:53:23;0.67;;;0.33;;
9524;SDS011;15940;48.734;9.112;2023-11-19T02:55:52;0.30;;;0.30;;
9524;SDS011;15940;48.734;9.112;2023-11-19T02:58:25;0.33;;;0.33;;
9524;SDS011;15940;48.734;9.112;2023-11-19T03:00:53;0.50;;;0.40;;
9524;SDS011;15940;48.734;9.112;2023-11-19T03:03:25;0.67;;;0.40;;
9524;SDS011;15940;48.734;9.112;2023-11-19T03:06:03;2.70;;;0.30;;
9524;SDS011;15940;48.734;9.112;2023-11-19T03:08:31;1.20;;;0.50;;
9524;SDS011;15940;48.734;9.112;2023-11-19T03:10:58;0.50;;;0.30;;
9524;SDS011;15940;48.734;9.112;2023-11-19T03:13:25;0.30;;;0.30;;
9524;SDS011;15940;48.734;9.112;2023-11-19T03:15:52;0.43;;;0.23;;
9524;SDS011;15940;48.734;9.112;2023-11-19T03:18:20;1.90;;;0.40;;
9524;SDS011;15940;48.734;9.112;2023-11-19T03:20:48;0.20;;;0.20;;
9524;SDS011;15940;48.734;9.112;2023-11-19T03:23:15;1.70;;;0.40;;
9524;SDS011;15940;48.734;9.112;2023-11-19T03:25:42;0.60;;;0.30;;
9524;SDS011;15940;48.734;9.112;2023-11-19T03:28:09;0.20;;;0.20;;
9524;SDS011;15940;48.734;9.112;2023-11-19T03:30:37;0.20;;;0.20;;
9524;SDS011;15940;48.734;9.112;2023-11-19T03:33:04;0.40;;;0.40;;
9524;SDS011;15940;48.734;9.112;2023-11-19T03:35:31;1.03;;;0.47;;
9524;SDS011;15940;48.734;9.112;2023-11-19T03:38:00;0.30;;;0.30;;
9524;SDS011;15940;48.734;9.112;2023-11-19T03:40:27;0.50;;;0.50;;
9524;SDS011;15940;48.734;9.112;2023-11-19T03:42:55;0.40;;;0.40;;
9524;SDS011;15940;48.734;9.112;2023-11-19T03:45:23;0.10;;;0.10;;
9524;SDS011;15940;48.734;9.112;2023-11-19T03:47:50;0.97;;;0.40;;
9524;SDS011;15940;48.734;9.112;2023-11-19T03:50:17;0.20;;;0.20;;
9524;SDS011;15940;48.734;9.112;2023-11-19T03:52:46;0.30;;;0.30;;
9524;SDS011;15940;48.734;9.112;2023-11-19T03:55:14;0.30;;;0.30;;
9524;SDS011;15940;48.734;9.112;2023-11-19T03:57:41;0.97;;;0.30;;
9524;SDS011;15940;48.734;9.112;2023-11-19T04:00:09;0.20;;;0.20;;
9524;SDS011;15940;48.734;9.112;2023-11-19T04:02:39;0.37;;;0.30;;
9524;SDS011;15940;48.734;9.112;2023-11-19T04:05:06;0.27;;;0.27;;
9524;SDS011;15940;48.734;9.112;2023-11-19T04:07:34;0.27;;;0.27;;
9524;SDS011;15940;48.734;9.112;2023-11-19T04:10:01;0.60;;;0.30;;
9524;SDS011;15940;48.734;9.112;2023-11-19T04:12:30;0.20;;;0.20;;
9524;SDS011;15940;48.734;9.112;2023-11-19T04:14:57;0.20;;;0.20;;
9524;SDS011;15940;48.734;9.112;2023-11-19T04:17:24;0.20;;;0.20;;
9524;SDS011;15940;48.734;9.112;2023-11-19T04:19:51;0.30;;;0.30;;
9524;SDS011;15940;48.734;9.112;2023-11-19T04:22:18;0.20;;;0.20;;
9524;SDS011;15940;48.734;9.112;2023-11-19T04:24:45;0.30;;;0.30;;
9524;SDS011;15940;48.734;9.112;2023-11-19T04:27:12;0.30;;;0.30;;
9524;SDS011;15940;48.734;9.112;2023-11-19T04:29:41;0.40;;;0.37;;
9524;SDS011;15940;48.734;9.112;2023-11-19T04:32:08;3.30;;;0.40;;
9524;SDS011;15940;48.734;9.112;2023-11-19T04:34:35;0.30;;;0.30;;
9524;SDS011;15940;48.734;9.112;2023-11-19T04:37:02;0.30;;;0.30;;
9524;SDS011;15940;48.734;9.112;2023-11-19T04:39:30;0.20;;;0.20;;
9524;SDS011;15940;48.734;9.112;2023-11-19T04:41:57;5.87;;;0.30;;
9524;SDS011;15940;48.734;9.112;2023-11-19T04:44:24;0.10;;;0.10;;
9524;SDS011;15940;48.734;9.112;2023-11-19T04:46:52;1.10;;;0.30;;
9524;SDS011;15940;48.734;9.112;2023-11-19T04:49:19;0.90;;;0.27;;
9524;SDS011;15940;48.734;9.112;2023-11-19T04:51:46;0.23;;;0.23;;
9524;SDS011;15940;48.734;9.112;2023-11-19T04:54:13;0.30;;;0.20;;
9524;SDS011;15940;48.734;9.112;2023-11-19T04:56:40;0.40;;;0.30;;
9524;SDS011;15940;48.734;9.112;2023-11-19T04:59:11;0.10;;;0.10;;
9524;SDS011;15940;48.734;9.112;2023-11-19T05:01:38;0.20;;;0.20;;
9524;SDS011;15940;48.734;9.112;2023-11-19T05:04:06;1.03;;;0.30;;
9524;SDS011;15940;48.734;9.112;2023-11-19T05:06:34;0.73;;;0.73;;
9524;SDS011;15940;48.734;9.112;2023-11-19T05:09:01;0.10;;;0.10;;
9524;SDS011;15940;48.734;9.112;2023-11-19T05:11:30;0.77;;;0.37;;
9524;SDS011;15940;48.734;9.112;2023-11-19T05:13:57;0.47;;;0.20;;
9524;SDS011;15940;48.734;9.112;2023-11-19T05:16:24;1.70;;;0.20;;
9524;SDS011;15940;48.734;9.112;2023-11-19T05:18:51;0.20;;;0.20;;
9524;SDS011;15940;48.734;9.112;2023-11-19T05:21:20;0.20;;;0.20;;
9524;SDS011;15940;48.734;9.112;2023-11-19T05:23:47;0.93;;;0.30;;
9524;SDS011;15940;48.734;9.112;2023-11-19T05:26:17;0.23;;;0.23;;
9524;SDS011;15940;48.734;9.112;2023-11-19T05:28:45;0.37;;;0.37;;
9524;SDS011;15940;48.734;9.112;2023-11-19T05:31:12;0.20;;;0.20;;
9524;SDS011;15940;48.734;9.112;2023-11-19T05:33:39;0.30;;;0.30;;
9524;SDS011;15940;48.734;9.112;2023-11-19T05:36:06;0.37;;;0.37;;
9524;SDS011;15940;48.734;9.112;2023-11-19T05:38:35;0.43;;;0.37;;
9524;SDS011;15940;48.734;9.112;2023-11-19T05:41:02;0.30;;;0.30;;
9524;SDS011;15940;48.734;9.112;2023-11-19T05:43:30;0.43;;;0.43;;
9524;SDS011;15940;48.734;9.112;2023-11-19T05:45:57;0.73;;;0.20;;
9524;SDS011;15940;48.734;9.112;2023-11-19T05:48:25;1.03;;;0.60;;
9524;SDS011;15940;48.734;9.112;2023-11-19T05:50:53;0.20;;;0.20;;
9524;SDS011;15940;48.734;9.112;2023-11-19T05:53:20;0.03;;;0.03;;
9524;SDS011;15940;48.734;9.112;2023-11-19T05:55:49;0.20;;;0.20;;
9524;SDS011;15940;48.734;9.112;2023-11-19T05:58:21;0.20;;;0.20;;
9524;SDS011;15940;48.734;9.112;2023-11-19T06:00:53;0.20;;;0.20;;
9524;SDS011;15940;48.734;9.112;2023-11-19T06:03:20;0.30;;;0.30;;
9524;SDS011;15940;48.734;9.112;2023-11-19T06:05:47;0.53;;;0.30;;
9524;SDS011;15940;48.734;9.112;2023-11-19T06:08:14;2.13;;;0.50;;
9524;SDS011;15940;48.734;9.112;2023-11-19T06:10:42;0.30;;;0.30;;
9524;SDS011;15940;48.734;9.112;2023-11-19T06:13:12;0.40;;;0.40;;
9524;SDS011;15940;48.734;9.112;2023-11-19T06:15:41;0.47;;;0.30;;
9524;SDS011;15940;48.734;9.112;2023-11-19T06:18:08;1.87;;;0.77;;
9524;SDS011;15940;48.734;9.112;2023-11-19T06:20:37;0.20;;;0.20;;
9524;SDS011;15940;48.734;9.112;2023-11-19T06:23:04;0.47;;;0.47;;
9524;SDS011;15940;48.734;9.112;2023-11-19T06:25:31;0.60;;;0.60;;
9524;SDS011;15940;48.734;9.112;2023-11-19T06:28:00;0.90;;;0.40;;
9524;SDS011;15940;48.734;9.112;2023-11-19T06:30:28;0.23;;;0.23;;
9524;SDS011;15940;48.734;9.112;2023-11-19T06:32:57;0.50;;;0.50;;
9524;SDS011;15940;48.734;9.112;2023-11-19T06:35:24;0.50;;;0.50;;
9524;SDS011;15940;48.734;9.112;2023-11-19T06:37:51;1.60;;;0.50;;
9524;SDS011;15940;48.734;9.112;2023-11-19T06:40:18;3.50;;;0.50;;
9524;SDS011;15940;48.734;9.112;2023-11-19T06:42:45;0.50;;;0.50;;
9524;SDS011;15940;48.734;9.112;2023-11-19T06:45:12;1.70;;;0.50;;
9524;SDS011;15940;48.734;9.112;2023-11-19T06:47:40;0.60;;;0.60;;
9524;SDS011;15940;48.734;9.112;2023-11-19T06:50:07;0.50;;;0.50;;
9524;SDS011;15940;48.734;9.112;2023-11-19T06:52:35;0.97;;;0.63;;
9524;SDS011;15940;48.734;9.112;2023-11-19T06:55:02;0.43;;;0.43;;
9524;SDS011;15940;48.734;9.112;2023-11-19T06:57:30;0.57;;;0.57;;
9524;SDS011;15940;48.734;9.112;2023-11-19T06:59:57;0.57;;;0.53;;
9524;SDS011;15940;48.734;9.112;2023-11-19T07:02:24;0.50;;;0.50;;
9524;SDS011;15940;48.734;9.112;2023-11-19T07:04:53;0.50;;;0.40;;
9524;SDS011;15940;48.734;9.112;2023-11-19T07:07:20;0.60;;;0.60;;
9524;SDS011;15940;48.734;9.112;2023-11-19T07:09:47;0.57;;;0.57;;
9524;SDS011;15940;48.734;9.112;2023-11-19T07:12:14;0.50;;;0.40;;
9524;SDS011;15940;48.734;9.112;2023-11-19T07:14:41;0.50;;;0.50;;
9524;SDS011;15940;48.734;9.112;2023-11-19T07:17:08;0.30;;;0.30;;
9524;SDS011;15940;48.734;9.112;2023-11-19T07:19:35;1.73;;;0.70;;
9524;SDS011;15940;48.734;9.112;2023-11-19T07:22:04;0.50;;;0.50;;
9524;SDS011;15940;48.734;9.112;2023-11-19T07:24:32;0.40;;;0.40;;
9524;SDS011;15940;48.734;9.112;2023-11-19T07:26:59;1.00;;;0.80;;
9524;SDS011;15940;48.734;9.112;2023-11-19T07:29:29;0.80;;;0.70;;
9524;SDS011;15940;48.734;9.112;2023-11-19T07:31:56;0.50;;;0.50;;
9524;SDS011;15940;48.734;9.112;2023-11-19T07:34:23;1.60;;;0.60;;
9524;SDS011;15940;48.734;9.112;2023-11-19T07:36:50;0.60;;;0.60;;
9524;SDS011;15940;48.734;9.112;2023-11-19T07:39:19;0.63;;;0.63;;
9524;SDS011;15940;48.734;9.112;2023-11-19T07:41:46;0.97;;;0.67;;
9524;SDS011;15940;48.734;9.112;2023-11-19T07:44:13;0.50;;;0.50;;
9524;SDS011;15940;48.734;9.112;2023-11-19T07:46:40;0.63;;;0.63;;
9524;SDS011;15940;48.734;9.112;2023-11-19T07:49:07;0.47;;;0.47;;
9524;SDS011;15940;48.734;9.112;2023-11-19T07:51:34;0.73;;;0.70;;
9524;SDS011;15940;48.734;9.112;2023-11-19T07:54:02;1.10;;;0.90;;
9524;SDS011;15940;48.734;9.112;2023-11-19T07:56:31;0.63;;;0.63;;
9524;SDS011;15940;48.734;9.112;2023-11-19T07:59:00;0.60;;;0.60;;
9524;SDS011;15940;48.734;9.112;2023-11-19T08:01:27;0.40;;;0.40;;
9524;SDS011;15940;48.734;9.112;2023-11-19T08:03:54;0.37;;;0.37;;
9524;SDS011;15940;48.734;9.112;2023-11-19T08:06:21;0.33;;;0.30;;
9524;SDS011;15940;48.734;9.112;2023-11-19T08:08:48;2.27;;;0.50;;
9524;SDS011;15940;48.734;9.112;2023-11-19T08:11:15;1.90;;;0.40;;
9524;SDS011;15940;48.734;9.112;2023-11-19T08:13:43;0.60;;;0.60;;
9524;SDS011;15940;48.734;9.112;2023-11-19T08:16:10;1.50;;;0.87;;
9524;SDS011;15940;48.734;9.112;2023-11-19T08:18:37;1.33;;;0.50;;
9524;SDS011;15940;48.734;9.112;2023-11-19T08:21:07;0.67;;;0.57;;
9524;SDS011;15940;48.734;9.112;2023-11-19T08:23:35;0.87;;;0.50;;
9524;SDS011;15940;48.734;9.112;2023-11-19T08:26:03;0.47;;;0.47;;
9524;SDS011;15940;48.734;9.112;2023-11-19T08:28:30;0.47;;;0.47;;
9524;SDS011;15940;48.734;9.112;2023-11-19T08:31:00;0.50;;;0.50;;
9524;SDS011;15940;48.734;9.112;2023-11-19T08:33:29;0.50;;;0.50;;
9524;SDS011;15940;48.734;9.112;2023-11-19T08:35:56;0.60;;;0.60;;
9524;SDS011;15940;48.734;9.112;2023-11-19T08:38:23;0.50;;;0.50;;
9524;SDS011;15940;48.734;9.112;2023-11-19T08:40:50;0.40;;;0.40;;
9524;SDS011;15940;48.734;9.112;2023-11-19T08:43:18;0.60;;;0.60;;
9524;SDS011;15940;48.734;9.112;2023-11-19T08:45:45;0.97;;;0.73;;
9524;SDS011;15940;48.734;9.112;2023-11-19T08:48:13;0.67;;;0.67;;
9524;SDS011;15940;48.734;9.112;2023-11-19T08:50:40;2.87;;;0.90;;
9524;SDS011;15940;48.734;9.112;2023-11-19T08:53:07;1.10;;;0.90;;
9524;SDS011;15940;48.734;9.112;2023-11-19T08:55:34;0.90;;;0.90;;
9524;SDS011;15940;48.734;9.112;2023-11-19T08:58:02;1.93;;;0.80;;
9524;SDS011;15940;48.734;9.112;2023-11-19T09:00:28;0.70;;;0.63;;
9524;SDS011;15940;48.734;9.112;2023-11-19T09:02:57;0.97;;;0.93;;
9524;SDS011;15940;48.734;9.112;2023-11-19T09:05:25;0.70;;;0.70;;
9524;SDS011;15940;48.734;9.112;2023-11-19T09:07:52;1.17;;;0.90;;
9524;SDS011;15940;48.734;9.112;2023-11-19T09:10:19;0.80;;;0.80;;
9524;SDS011;15940;48.734;9.112;2023-11-19T09:12:46;0.80;;;0.80;;
9524;SDS011;15940;48.734;9.112;2023-11-19T09:15:13;1.60;;;0.80;;
9524;SDS011;15940;48.734;9.112;2023-11-19T09:17:40;1.40;;;1.00;;
9524;SDS011;15940;48.734;9.112;2023-11-19T09:20:08;2.40;;;1.30;;
9524;SDS011;15940;48.734;9.112;2023-11-19T09:22:38;1.10;;;1.10;;
9524;SDS011;15940;48.734;9.112;2023-11-19T09:25:06;1.00;;;1.00;;
9524;SDS011;15940;48.734;9.112;2023-11-19T09:27:34;1.13;;;0.97;;
9524;SDS011;15940;48.734;9.112;2023-11-19T09:30:01;0.70;;;0.63;;
9524;SDS011;15940;48.734;9.112;2023-11-19T09:32:29;0.60;;;0.60;;
9524;SDS011;15940;48.734;9.112;2023-11-19T09:34:56;0.97;;;0.97;;
9524;SDS011;15940;48.734;9.112;2023-11-19T09:37:22;1.33;;;1.23;;
9524;SDS011;15940;48.734;9.112;2023-11-19T09:39:51;1.50;;;1.20;;
9524;SDS011;15940;48.734;9.112;2023-11-19T09:42:18;1.97;;;1.13;;
9524;SDS011;15940;48.734;9.112;2023-11-19T09:44:45;0.87;;;0.87;;
9524;SDS011;15940;48.734;9.112;2023-11-19T09:47:13;1.63;;;1.10;;
9524;SDS011;15940;48.734;9.112;2023-11-19T09:49:42;4.47;;;1.20;;
9524;SDS011;15940;48.734;9.112;2023-11-19T09:52:10;1.50;;;1.40;;
9524;SDS011;15940;48.734;9.112;2023-11-19T09:54:37;0.97;;;0.97;;
9524;SDS011;15940;48.734;9.112;2023-11-19T09:57:05;1.80;;;0.70;;
9524;SDS011;15940;48.734;9.112;2023-11-19T09:59:35;0.67;;;0.63;;
9524;SDS011;15940;48.734;9.112;2023-11-19T10:02:04;1.30;;;1.20;;
9524;SDS011;15940;48.734;9.112;2023-11-19T10:04:32;2.93;;;0.70;;
9524;SDS011;15940;48.734;9.112;2023-11-19T10:07:03;1.87;;;1.00;;
9524;SDS011;15940;48.734;9.112;2023-11-19T10:09:30;0.70;;;0.70;;
9524;SDS011;15940;48.734;9.112;2023-11-19T10:11:57;2.40;;;0.80;;
9524;SDS011;15940;48.734;9.112;2023-11-19T10:14:26;1.13;;;0.77;;
9524;SDS011;15940;48.734;9.112;2023-11-19T10:16:54;0.60;;;0.60;;
9524;SDS011;15940;48.734;9.112;2023-11-19T10:19:22;2.47;;;0.70;;
9524;SDS011;15940;48.734;9.112;2023-11-19T10:21:49;3.17;;;0.60;;
9524;SDS011;15940;48.734;9.112;2023-11-19T10:24:16;1.40;;;0.80;;
9524;SDS011;15940;48.734;9.112;2023-11-19T10:26:57;0.70;;;0.70;;
9524;SDS011;15940;48.734;9.112;2023-11-19T10:29:24;1.80;;;0.80;;
9524;SDS011;15940;48.734;9.112;2023-11-19T10:31:57;0.70;;;0.70;;
9524;SDS011;15940;48.734;9.112;2023-11-19T10:34:25;0.70;;;0.70;;
9524;SDS011;15940;48.734;9.112;2023-11-19T10:36:53;1.23;;;0.80;;
9524;SDS011;15940;48.734;9.112;2023-11-19T10:39:20;0.90;;;0.90;;
9524;SDS011;15940;48.734;9.112;2023-11-19T10:41:48;2.90;;;0.77;;
9524;SDS011;15940;48.734;9.112;2023-11-19T10:47:09;0.60;;;0.60;;
9524;SDS011;15940;48.734;9.112;2023-11-19T10:49:37;0.50;;;0.50;;
9524;SDS011;15940;48.734;9.112;2023-11-19T10:52:03;0.77;;;0.73;;
9524;SDS011;15940;48.734;9.112;2023-11-19T10:54:32;0.87;;;0.87;;
9524;SDS011;15940;48.734;9.112;2023-11-19T10:57:01;0.60;;;0.60;;
9524;SDS011;15940;48.734;9.112;2023-11-19T10:59:30;0.87;;;0.70;;
9524;SDS011;15940;48.734;9.112;2023-11-19T11:01:57;0.50;;;0.50;;
9524;SDS011;15940;48.734;9.112;2023-11-19T11:04:26;1.17;;;0.53;;
9524;SDS011;15940;48.734;9.112;2023-11-19T11:06:56;1.33;;;0.60;;
9524;SDS011;15940;48.734;9.112;2023-11-19T11:09:25;0.83;;;0.80;;
9524;SDS011;15940;48.734;9.112;2023-11-19T11:11:52;0.40;;;0.40;;
9524;SDS011;15940;48.734;9.112;2023-11-19T11:14:20;0.97;;;0.80;;
9524;SDS011;15940;48.734;9.112;2023-11-19T11:16:48;0.80;;;0.63;;
9524;SDS011;15940;48.734;9.112;2023-11-19T11:19:15;0.57;;;0.30;;
9524;SDS011;15940;48.734;9.112;2023-11-19T11:21:47;0.63;;;0.63;;
9524;SDS011;15940;48.734;9.112;2023-11-19T11:24:20;0.60;;;0.50;;
9524;SDS011;15940;48.734;9.112;2023-11-19T11:27:09;1.43;;;0.60;;
9524;SDS011;15940;48.734;9.112;2023-11-19T11:29:53;1.63;;;0.70;;
9524;SDS011;15940;48.734;9.112;2023-11-19T11:32:30;0.70;;;0.70;;
9524;SDS011;15940;48.734;9.112;2023-11-19T11:35:06;4.73;;;0.90;;
9524;SDS011;15940;48.734;9.112;2023-11-19T11:37:43;0.97;;;0.60;;
9524;SDS011;15940;48.734;9.112;2023-11-19T11:40:13;0.93;;;0.40;;
9524;SDS011;15940;48.734;9.112;2023-11-19T11:42:40;1.33;;;0.70;;
9524;SDS011;15940;48.734;9.112;2023-11-19T11:45:08;1.30;;;0.73;;
9524;SDS011;15940;48.734;9.112;2023-11-19T11:50:48;0.70;;;0.70;;
9524;SDS011;15940;48.734;9.112;2023-11-19T11:53:18;1.30;;;0.80;;
9524;SDS011;15940;48.734;9.112;2023-11-19T11:56:00;0.60;;;0.50;;
9524;SDS011;15940;48.734;9.112;2023-11-19T11:58:31;1.97;;;1.87;;
9524;SDS011;15940;48.734;9.112;2023-11-19T12:00:59;1.00;;;0.70;;
9524;SDS011;15940;48.734;9.112;2023-11-19T12:03:30;0.80;;;0.73;;
9524;SDS011;15940;48.734;9.112;2023-11-19T12:05:58;4.03;;;0.97;;
9524;SDS011;15940;48.734;9.112;2023-11-19T12:08:26;0.83;;;0.50;;
9524;SDS011;15940;48.734;9.112;2023-11-19T12:10:55;1.07;;;0.53;;
9524;SDS011;15940;48.734;9.112;2023-11-19T12:13:24;0.70;;;0.70;;
9524;SDS011;15940;48.734;9.112;2023-11-19T12:16:07;1.80;;;0.80;;
9524;SDS011;15940;48.734;9.112;2023-11-19T12:18:33;1.00;;;0.90;;
9524;SDS011;15940;48.734;9.112;2023-11-19T12:21:00;0.83;;;0.53;;
9524;SDS011;15940;48.734;9.112;2023-11-19T12:23:29;1.57;;;0.83;;
9524;SDS011;15940;48.734;9.112;2023-11-19T12:25:57;1.87;;;0.90;;
9524;SDS011;15940;48.734;9.112;2023-11-19T12:28:24;0.80;;;0.80;;
9524;SDS011;15940;48.734;9.112;2023-11-19T12:30:51;1.47;;;1.10;;
9524;SDS011;15940;48.734;9.112;2023-11-19T12:33:19;4.43;;;0.90;;
9524;SDS011;15940;48.734;9.112;2023-11-19T12:35:46;0.70;;;0.60;;
9524;SDS011;15940;48.734;9.112;2023-11-19T12:38:20;0.83;;;0.83;;
9524;SDS011;15940;48.734;9.112;2023-11-19T12:40:48;0.73;;;0.73;;
9524;SDS011;15940;48.734;9.112;2023-11-19T12:43:28;0.87;;;0.80;;
9524;SDS011;15940;48.734;9.112;2023-11-19T12:45:55;1.10;;;0.77;;
9524;SDS011;15940;48.734;9.112;2023-11-19T12:48:22;0.83;;;0.60;;
9524;SDS011;15940;48.734;9.112;2023-11-19T12:50:52;2.77;;;0.80;;
9524;SDS011;15940;48.734;9.112;2023-11-19T12:53:19;0.83;;;0.63;;
9524;SDS011;15940;48.734;9.112;2023-11-19T12:55:45;0.70;;;0.63;;
9524;SDS011;15940;48.734;9.112;2023-11-19T13:01:06;2.70;;;0.80;;
9524;SDS011;15940;48.734;9.112;2023-11-19T13:03:35;1.73;;;0.77;;
9524;SDS011;15940;48.734;9.112;2023-11-19T13:06:04;2.43;;;0.70;;
9524;SDS011;15940;48.734;9.112;2023-11-19T13:08:36;2.27;;;0.90;;
9524;SDS011;15940;48.734;9.112;2023-11-19T13:11:04;1.60;;;0.90;;
9524;SDS011;15940;48.734;9.112;2023-11-19T13:13:32;2.87;;;1.10;;
9524;SDS011;15940;48.734;9.112;2023-11-19T13:16:03;0.93;;;0.80;;
9524;SDS011;15940;48.734;9.112;2023-11-19T13:18:33;2.20;;;0.57;;
9524;SDS011;15940;48.734;9.112;2023-11-19T13:21:01;1.60;;;1.30;;
9524;SDS011;15940;48.734;9.112;2023-11-19T13:23:28;2.67;;;0.60;;
9524;SDS011;15940;48.734;9.112;2023-11-19T13:25:55;1.73;;;0.80;;
9524;SDS011;15940;48.734;9.112;2023-11-19T13:28:21;0.50;;;0.50;;
9524;SDS011;15940;48.734;9.112;2023-11-19T13:30:48;1.87;;;0.80;;
9524;SDS011;15940;48.734;9.112;2023-11-19T13:33:16;1.47;;;0.77;;
9524;SDS011;15940;48.734;9.112;2023-11-19T13:35:43;0.93;;;0.70;;
9524;SDS011;15940;48.734;9.112;2023-11-19T13:38:10;1.40;;;0.73;;
9524;SDS011;15940;48.734;9.112;2023-11-19T13:40:36;1.70;;;0.87;;
9524;SDS011;15940;48.734;9.112;2023-11-19T13:43:04;1.10;;;0.73;;
9524;SDS011;15940;48.734;9.112;2023-11-19T13:45:30;1.40;;;0.37;;
9524;SDS011;15940;48.734;9.112;2023-11-19T13:47:57;2.13;;;0.80;;
9524;SDS011;15940;48.734;9.112;2023-11-19T13:50:25;2.97;;;0.60;;
9524;SDS011;15940;48.734;9.112;2023-11-19T13:52:53;2.10;;;0.80;;
9524;SDS011;15940;48.734;9.112;2023-11-19T13:55:20;1.60;;;0.80;;
9524;SDS011;15940;48.734;9.112;2023-11-19T13:57:47;1.23;;;0.60;;
9524;SDS011;15940;48.734;9.112;2023-11-19T14:00:14;0.67;;;0.60;;
9524;SDS011;15940;48.734;9.112;2023-11-19T14:02:42;0.70;;;0.70;;
9524;SDS011;15940;48.734;9.112;2023-11-19T14:05:09;0.90;;;0.80;;
9524;SDS011;15940;48.734;9.112;2023-11-19T14:07:38;1.17;;;0.83;;
9524;SDS011;15940;48.734;9.112;2023-11-19T14:10:05;2.30;;;0.60;;
9524;SDS011;15940;48.734;9.112;2023-11-19T14:12:34;3.43;;;0.70;;
9524;SDS011;15940;48.734;9.112;2023-11-19T14:15:01;2.87;;;0.70;;
9524;SDS011;15940;48.734;9.112;2023-11-19T14:17:29;0.50;;;0.50;;
9524;SDS011;15940;48.734;9.112;2023-11-19T14:19:55;0.57;;;0.57;;
9524;SDS011;15940;48.734;9.112;2023-11-19T14:22:22;0.70;;;0.63;;
9524;SDS011;15940;48.734;9.112;2023-11-19T14:24:51;1.03;;;0.80;;
9524;SDS011;15940;48.734;9.112;2023-11-19T14:27:17;0.77;;;0.50;;
9524;SDS011;15940;48.734;9.112;2023-11-19T14:29:44;0.60;;;0.53;;
9524;SDS011;15940;48.734;9.112;2023-11-19T14:32:11;1.30;;;0.80;;
9524;SDS011;15940;48.734;9.112;2023-11-19T14:34:38;0.90;;;0.70;;
9524;SDS011;15940;48.734;9.112;2023-11-19T14:37:05;0.97;;;0.80;;
9524;SDS011;15940;48.734;9.112;2023-11-19T14:39:31;3.20;;;0.87;;
9524;SDS011;15940;48.734;9.112;2023-11-19T14:41:59;0.90;;;0.80;;
9524;SDS011;15940;48.734;9.112;2023-11-19T14:44:29;1.37;;;0.73;;
9524;SDS011;15940;48.734;9.112;2023-11-19T14:46:56;2.17;;;0.90;;
9524;SDS011;15940;48.734;9.112;2023-11-19T14:49:23;1.87;;;0.73;;
9524;SDS011;15940;48.734;9.112;2023-11-19T14:51:51;1.60;;;1.03;;
9524;SDS011;15940;48.734;9.112;2023-11-19T14:54:18;1.30;;;1.10;;
9524;SDS011;15940;48.734;9.112;2023-11-19T14:56:44;1.53;;;1.10;;
9524;SDS011;15940;48.734;9.112;2023-11-19T14:59:12;1.23;;;0.80;;
9524;SDS011;15940;48.734;9.112;2023-11-19T15:01:39;1.60;;;0.90;;
9524;SDS011;15940;48.734;9.112;2023-11-19T15:04:06;1.47;;;0.80;;
9524;SDS011;15940;48.734;9.112;2023-11-19T15:06:33;2.00;;;1.00;;
9524;SDS011;15940;48.734;9.112;2023-11-19T15:09:00;1.90;;;0.90;;
9524;SDS011;15940;48.734;9.112;2023-11-19T15:11:27;1.70;;;0.60;;
9524;SDS011;15940;48.734;9.112;2023-11-19T15:13:53;0.63;;;0.63;;